createdAt,value
2019-05-18T00:00:45.284Z,1.39
2019-05-18T00:03:11.516Z,1.30
2019-05-18T00:05:37.755Z,1.23
2019-05-18T00:08:03.990Z,1.19
2019-05-18T00:10:30.240Z,1.16
2019-05-18T00:12:56.463Z,1.10
2019-05-18T00:15:22.696Z,1.04
2019-05-18T00:17:48.983Z,1.00
2019-05-18T00:20:15.178Z,0.94
2019-05-18T00:22:41.444Z,0.89
2019-05-18T00:25:07.963Z,0.89
2019-05-18T00:27:34.246Z,0.94
2019-05-18T00:30:00.468Z,0.97
2019-05-18T00:32:26.733Z,0.98
2019-05-18T00:34:52.976Z,0.91
2019-05-18T00:37:19.220Z,0.95
2019-05-18T00:39:45.482Z,0.96
2019-05-18T00:42:11.715Z,0.89
2019-05-18T00:44:37.950Z,0.82
2019-05-18T00:47:04.205Z,0.82
2019-05-18T00:49:30.459Z,0.76
2019-05-18T00:51:56.704Z,0.68
2019-05-18T00:54:22.960Z,0.65
2019-05-18T00:56:49.188Z,0.60
2019-05-18T00:59:16.148Z,0.55
2019-05-18T01:01:42.715Z,0.55
2019-05-18T01:04:08.931Z,0.60
2019-05-18T01:06:35.158Z,0.60
2019-05-18T01:09:01.398Z,0.61
2019-05-18T01:11:27.641Z,0.63
2019-05-18T01:13:53.869Z,0.59
2019-05-18T01:16:20.093Z,0.55
2019-05-18T01:18:46.338Z,0.53
2019-05-18T01:21:12.563Z,0.55
2019-05-18T01:23:38.834Z,0.56
2019-05-18T01:26:05.073Z,0.58
2019-05-18T01:28:31.318Z,0.54
2019-05-18T01:30:57.552Z,0.48
2019-05-18T01:33:23.789Z,0.43
2019-05-18T01:35:50.016Z,0.38
2019-05-18T01:38:16.263Z,0.31
2019-05-18T01:40:42.599Z,0.18
2019-05-18T01:43:08.843Z,0.17
2019-05-18T01:45:35.099Z,0.14
2019-05-18T01:48:13.463Z,0.12
2019-05-18T01:50:29.476Z,0.12
2019-05-18T01:52:55.694Z,0.12
2019-05-18T01:55:21.932Z,0.12
2019-05-18T01:57:48.168Z,0.10
2019-05-18T02:00:14.714Z,0.06
2019-05-18T02:02:40.992Z,0.05
2019-05-18T02:05:07.498Z,0.04
2019-05-18T02:07:33.731Z,0.03
2019-05-18T02:09:59.972Z,0.03
2019-05-18T02:12:26.203Z,0.03
2019-05-18T02:14:52.443Z,0.03
2019-05-18T02:17:18.672Z,0.02
2019-05-18T02:19:44.916Z,0.07
2019-05-18T02:22:11.639Z,0.11
2019-05-18T02:24:37.884Z,0.11
2019-05-18T02:27:04.099Z,0.11
2019-05-18T02:29:30.353Z,0.13
2019-05-18T02:31:56.582Z,0.13
2019-05-18T02:34:22.819Z,0.15
2019-05-18T02:36:49.066Z,0.19
2019-05-18T02:39:15.334Z,0.22
2019-05-18T02:41:41.575Z,0.29
2019-05-18T02:44:07.783Z,0.35
2019-05-18T02:46:34.057Z,0.41
2019-05-18T02:49:00.283Z,0.47
2019-05-18T02:51:26.529Z,0.60
2019-05-18T02:53:52.755Z,0.75
2019-05-18T02:56:18.994Z,0.79
2019-05-18T02:58:45.226Z,0.83
2019-05-18T03:01:11.461Z,0.90
2019-05-18T03:03:37.694Z,0.99
2019-05-18T03:06:04.040Z,1.07
2019-05-18T03:08:30.269Z,1.18
2019-05-18T03:10:56.511Z,1.28
2019-05-18T03:13:22.751Z,1.37
2019-05-18T03:15:48.997Z,1.45
2019-05-18T03:18:15.222Z,1.51
2019-05-18T03:20:41.514Z,1.63
2019-05-18T03:23:07.740Z,1.73
2019-05-18T03:25:34.010Z,1.83
2019-05-18T03:28:00.229Z,1.95
2019-05-18T03:30:26.473Z,2.07
2019-05-18T03:32:52.717Z,2.23
2019-05-18T03:35:18.938Z,2.35
2019-05-18T03:37:45.198Z,2.48
2019-05-18T03:40:11.923Z,2.60
2019-05-18T03:42:38.166Z,2.74
2019-05-18T03:45:04.801Z,2.89
2019-05-18T03:47:31.039Z,3.14
2019-05-18T03:49:57.264Z,3.40
2019-05-18T03:52:23.509Z,3.69
2019-05-18T03:54:49.737Z,3.98
2019-05-18T03:57:15.989Z,4.29
2019-05-18T03:59:42.197Z,4.64
2019-05-18T04:02:08.431Z,5.01
2019-05-18T04:04:34.661Z,5.42
2019-05-18T04:07:00.901Z,5.87
2019-05-18T04:09:27.125Z,6.26
2019-05-18T04:11:53.366Z,6.63
2019-05-18T04:14:19.590Z,7.05
2019-05-18T04:16:45.824Z,7.47
2019-05-18T04:19:12.050Z,7.87
2019-05-18T04:21:38.270Z,8.36
2019-05-18T04:24:04.531Z,8.87
2019-05-18T04:26:30.771Z,9.37
2019-05-18T04:28:57.815Z,9.76
2019-05-18T04:31:24.038Z,10.26
2019-05-18T04:33:50.281Z,10.71
2019-05-18T04:36:16.525Z,11.10
2019-05-18T04:38:42.763Z,11.65
2019-05-18T04:41:08.994Z,12.04
2019-05-18T04:43:35.233Z,12.40
2019-05-18T04:46:01.464Z,12.65
2019-05-18T04:48:27.710Z,12.91
2019-05-18T04:50:53.935Z,13.41
2019-05-18T04:53:20.171Z,13.83
2019-05-18T04:55:46.390Z,14.24
2019-05-18T04:58:12.628Z,14.59
2019-05-18T05:00:38.867Z,14.83
2019-05-18T05:03:05.113Z,15.36
2019-05-18T05:05:31.335Z,15.89
2019-05-18T05:07:57.568Z,16.43
2019-05-18T05:10:23.803Z,16.78
2019-05-18T05:12:50.032Z,17.00
2019-05-18T05:15:16.298Z,17.25
2019-05-18T05:17:42.541Z,17.52
2019-05-18T05:20:19.446Z,17.58
2019-05-18T05:22:37.139Z,18.21
2019-05-18T05:25:03.827Z,18.77
2019-05-18T05:27:30.056Z,19.10
2019-05-18T05:29:56.312Z,19.65
2019-05-18T05:32:22.551Z,19.86
2019-05-18T05:34:48.784Z,20.29
2019-05-18T05:37:15.029Z,20.70
2019-05-18T05:39:41.265Z,20.73
2019-05-18T05:42:07.491Z,20.85
2019-05-18T05:44:33.729Z,21.17
2019-05-18T05:46:59.966Z,21.32
2019-05-18T05:49:26.512Z,21.44
2019-05-18T05:51:52.733Z,21.53
2019-05-18T05:54:18.968Z,21.62
2019-05-18T05:56:45.212Z,21.75
2019-05-18T05:59:11.437Z,22.11
2019-05-18T06:01:37.679Z,22.06
2019-05-18T06:04:03.904Z,21.97
2019-05-18T06:06:30.149Z,22.35
2019-05-18T06:08:56.376Z,22.86
2019-05-18T06:11:22.617Z,23.26
2019-05-18T06:13:48.847Z,23.20
2019-05-18T06:16:15.096Z,23.15
2019-05-18T06:18:41.390Z,23.30
2019-05-18T06:21:07.663Z,23.39
2019-05-18T06:23:33.925Z,23.59
2019-05-18T06:26:00.166Z,23.92
2019-05-18T06:28:26.387Z,24.10
2019-05-18T06:30:52.628Z,23.75
2019-05-18T06:33:18.862Z,23.90
2019-05-18T06:35:45.119Z,24.19
2019-05-18T06:38:11.347Z,24.12
2019-05-18T06:40:37.636Z,24.12
2019-05-18T06:43:03.840Z,23.97
2019-05-18T06:45:30.075Z,24.24
2019-05-18T06:47:56.310Z,24.48
2019-05-18T06:50:29.580Z,24.70
2019-05-18T06:52:55.825Z,23.91
2019-05-18T06:55:22.860Z,23.85
2019-05-18T06:57:49.808Z,23.89
2019-05-18T07:00:16.351Z,23.88
2019-05-18T07:02:42.588Z,24.06
2019-05-18T07:05:09.122Z,24.61
2019-05-18T07:07:35.361Z,25.11
2019-05-18T07:10:01.919Z,25.24
2019-05-18T07:12:28.221Z,25.39
2019-05-18T07:14:54.445Z,24.33
2019-05-18T07:17:20.704Z,24.20
2019-05-18T07:19:46.953Z,23.88
2019-05-18T07:22:13.211Z,24.13
2019-05-18T07:24:39.436Z,24.42
2019-05-18T07:27:05.683Z,24.80
2019-05-18T07:29:31.913Z,25.32
2019-05-18T07:31:59.962Z,25.51
2019-05-18T07:34:26.796Z,25.59
2019-05-18T07:36:53.324Z,25.80
2019-05-18T07:39:19.568Z,26.31
2019-05-18T07:41:47.238Z,26.38
2019-05-18T07:44:13.664Z,26.47
2019-05-18T07:46:39.892Z,26.32
2019-05-18T07:49:06.145Z,26.26
2019-05-18T07:51:37.142Z,25.63
2019-05-18T07:54:00.529Z,25.84
2019-05-18T07:56:26.759Z,25.88
2019-05-18T07:58:53.003Z,25.34
2019-05-18T08:01:19.233Z,25.36
2019-05-18T08:03:45.483Z,25.66
2019-05-18T08:06:11.724Z,25.38
2019-05-18T08:08:37.964Z,25.56
2019-05-18T08:11:04.214Z,25.73
2019-05-18T08:13:30.451Z,25.99
2019-05-18T08:15:56.679Z,25.76
2019-05-18T08:18:23.881Z,25.00
2019-05-18T08:20:50.119Z,25.14
2019-05-18T08:23:16.387Z,25.90
2019-05-18T08:25:42.632Z,26.34
2019-05-18T08:28:08.865Z,26.22
2019-05-18T08:30:35.117Z,26.18
2019-05-18T08:33:01.354Z,26.35
2019-05-18T08:35:27.605Z,26.73
2019-05-18T08:37:53.831Z,26.85
2019-05-18T08:40:20.090Z,26.94
2019-05-18T08:42:46.349Z,26.86
2019-05-18T08:45:12.989Z,26.65
2019-05-18T08:47:39.228Z,26.59
2019-05-18T08:50:06.774Z,26.87
2019-05-18T08:52:35.117Z,27.00
2019-05-18T08:55:01.154Z,27.19
2019-05-18T08:57:27.387Z,27.08
2019-05-18T08:59:53.630Z,27.59
2019-05-18T09:02:19.863Z,28.00
2019-05-18T09:04:46.108Z,27.71
2019-05-18T09:07:12.331Z,27.66
2019-05-18T09:09:38.594Z,27.79
2019-05-18T09:12:04.824Z,27.59
2019-05-18T09:14:31.054Z,27.70
2019-05-18T09:16:57.311Z,27.59
2019-05-18T09:19:23.572Z,27.72
2019-05-18T09:21:49.814Z,27.74
2019-05-18T09:24:16.076Z,27.94
2019-05-18T09:26:42.325Z,27.87
2019-05-18T09:29:08.552Z,27.91
2019-05-18T09:31:34.803Z,27.62
2019-05-18T09:34:01.029Z,27.88
2019-05-18T09:36:27.320Z,28.03
2019-05-18T09:38:53.518Z,27.96
2019-05-18T09:41:19.791Z,27.68
2019-05-18T09:43:46.025Z,27.94
2019-05-18T09:46:12.309Z,28.08
2019-05-18T09:48:38.566Z,28.15
2019-05-18T09:51:04.821Z,28.40
2019-05-18T09:53:31.048Z,28.17
2019-05-18T09:55:57.297Z,28.00
2019-05-18T09:58:23.547Z,28.17
2019-05-18T10:00:49.789Z,27.91
2019-05-18T10:03:16.032Z,27.81
2019-05-18T10:05:42.259Z,27.92
2019-05-18T10:08:08.609Z,28.10
2019-05-18T10:10:34.854Z,28.17
2019-05-18T10:13:01.095Z,27.87
2019-05-18T10:15:27.331Z,27.80
2019-05-18T10:17:53.580Z,27.91
2019-05-18T10:20:19.918Z,27.90
2019-05-18T10:22:59.025Z,28.14
2019-05-18T10:25:14.402Z,27.88
2019-05-18T10:27:40.645Z,28.08
2019-05-18T10:30:08.383Z,28.22
2019-05-18T10:32:34.626Z,28.34
2019-05-18T10:35:00.858Z,28.77
2019-05-18T10:37:27.105Z,28.88
2019-05-18T10:39:53.344Z,27.95
2019-05-18T10:42:19.589Z,28.23
2019-05-18T10:44:46.314Z,28.54
2019-05-18T10:47:12.563Z,28.68
2019-05-18T10:49:38.798Z,28.66
2019-05-18T10:52:05.048Z,28.51
2019-05-18T10:54:31.358Z,28.43
2019-05-18T10:56:57.699Z,28.40
2019-05-18T10:59:23.954Z,28.69
2019-05-18T11:01:50.183Z,28.45
2019-05-18T11:04:16.435Z,28.52
2019-05-18T11:06:42.670Z,28.43
2019-05-18T11:09:08.919Z,28.87
2019-05-18T11:11:35.161Z,28.78
2019-05-18T11:14:01.505Z,27.95
2019-05-18T11:16:27.748Z,27.70
2019-05-18T11:18:53.993Z,27.48
2019-05-18T11:21:20.222Z,27.35
2019-05-18T11:23:48.077Z,27.20
2019-05-18T11:26:14.521Z,27.20
2019-05-18T11:28:40.767Z,26.93
2019-05-18T11:31:06.995Z,27.00
2019-05-18T11:33:33.254Z,27.10
2019-05-18T11:35:59.481Z,27.07
2019-05-18T11:38:25.739Z,27.09
2019-05-18T11:40:51.974Z,27.15
2019-05-18T11:43:18.214Z,27.37
2019-05-18T11:45:44.474Z,27.46
2019-05-18T11:48:10.721Z,27.29
2019-05-18T11:50:36.960Z,26.83
2019-05-18T11:53:03.190Z,26.69
2019-05-18T11:55:29.447Z,26.60
2019-05-18T11:57:55.681Z,26.81
2019-05-18T12:00:22.424Z,26.99
2019-05-18T12:02:48.659Z,27.01
2019-05-18T12:05:15.337Z,26.81
2019-05-18T12:07:41.574Z,26.91
2019-05-18T12:10:08.523Z,26.59
2019-05-18T12:12:34.762Z,26.79
2019-05-18T12:15:01.012Z,26.49
2019-05-18T12:17:27.258Z,26.23
2019-05-18T12:19:53.490Z,26.34
2019-05-18T12:22:19.733Z,26.29
2019-05-18T12:24:45.975Z,26.41
2019-05-18T12:27:12.207Z,26.09
2019-05-18T12:29:38.441Z,25.94
2019-05-18T12:32:04.694Z,26.06
2019-05-18T12:34:30.929Z,26.31
2019-05-18T12:36:57.169Z,26.31
2019-05-18T12:39:23.401Z,26.48
2019-05-18T12:41:49.660Z,26.25
2019-05-18T12:44:15.888Z,26.08
2019-05-18T12:46:42.270Z,25.98
2019-05-18T12:49:08.573Z,25.95
2019-05-18T12:51:34.834Z,26.08
2019-05-18T12:54:01.079Z,26.02
2019-05-18T12:56:27.352Z,26.10
2019-05-18T12:58:53.582Z,26.09
2019-05-18T13:01:19.839Z,25.95
2019-05-18T13:03:46.060Z,25.85
2019-05-18T13:06:12.323Z,25.88
2019-05-18T13:08:38.590Z,25.94
2019-05-18T13:11:04.931Z,25.94
2019-05-18T13:13:31.167Z,26.12
2019-05-18T13:15:57.399Z,26.03
2019-05-18T13:18:23.645Z,26.16
2019-05-18T13:20:49.879Z,26.13
2019-05-18T13:23:16.152Z,25.95
2019-05-18T13:25:42.382Z,25.83
2019-05-18T13:28:08.681Z,25.92
2019-05-18T13:30:34.973Z,25.79
2019-05-18T13:33:01.220Z,25.78
2019-05-18T13:35:27.446Z,25.96
2019-05-18T13:37:53.690Z,26.01
2019-05-18T13:40:21.031Z,25.90
2019-05-18T13:42:47.372Z,25.75
2019-05-18T13:45:14.101Z,25.68
2019-05-18T13:47:40.339Z,25.63
2019-05-18T13:50:07.005Z,25.63
2019-05-18T13:52:33.235Z,25.45
2019-05-18T13:55:04.126Z,25.34
2019-05-18T13:57:27.643Z,25.17
2019-05-18T13:59:53.871Z,25.19
2019-05-18T14:02:20.225Z,25.23
2019-05-18T14:04:46.468Z,25.13
2019-05-18T14:07:12.707Z,24.86
2019-05-18T14:09:38.949Z,24.98
2019-05-18T14:12:05.184Z,24.93
2019-05-18T14:14:31.437Z,24.92
2019-05-18T14:16:57.678Z,24.57
2019-05-18T14:19:23.943Z,24.33
2019-05-18T14:21:50.170Z,24.18
2019-05-18T14:24:16.427Z,24.14
2019-05-18T14:26:42.657Z,23.91
2019-05-18T14:29:08.894Z,23.76
2019-05-18T14:31:35.133Z,23.53
2019-05-18T14:34:01.381Z,23.35
2019-05-18T14:36:27.618Z,23.30
2019-05-18T14:38:56.847Z,23.28
2019-05-18T14:41:21.997Z,23.28
2019-05-18T14:43:48.246Z,23.13
2019-05-18T14:46:14.482Z,22.98
2019-05-18T14:48:40.775Z,22.88
2019-05-18T14:51:07.088Z,22.46
2019-05-18T14:53:33.380Z,22.31
2019-05-18T14:55:59.617Z,22.13
2019-05-18T14:58:25.851Z,22.17
2019-05-18T15:00:52.106Z,22.06
2019-05-18T15:03:18.343Z,21.84
2019-05-18T15:05:44.585Z,21.79
2019-05-18T15:08:10.817Z,21.75
2019-05-18T15:10:37.083Z,21.58
2019-05-18T15:13:03.440Z,21.54
2019-05-18T15:15:29.681Z,21.49
2019-05-18T15:17:55.929Z,21.33
2019-05-18T15:20:22.187Z,21.22
2019-05-18T15:22:48.426Z,21.17
2019-05-18T15:25:14.804Z,21.12
2019-05-18T15:27:41.080Z,21.03
2019-05-18T15:30:08.098Z,20.89
2019-05-18T15:32:34.345Z,20.83
2019-05-18T15:35:00.587Z,20.76
2019-05-18T15:37:26.816Z,20.68
2019-05-18T15:39:53.074Z,20.58
2019-05-18T15:42:19.315Z,20.47
2019-05-18T15:44:45.540Z,20.45
2019-05-18T15:47:11.796Z,20.35
2019-05-18T15:49:38.033Z,20.33
2019-05-18T15:52:04.289Z,20.27
2019-05-18T15:54:30.517Z,20.23
2019-05-18T15:56:56.763Z,20.19
2019-05-18T15:59:22.997Z,20.17
2019-05-18T16:01:49.248Z,20.07
2019-05-18T16:04:15.488Z,19.97
2019-05-18T16:06:41.733Z,19.95
2019-05-18T16:09:07.977Z,19.89
2019-05-18T16:11:36.038Z,19.76
2019-05-18T16:14:02.268Z,19.70
2019-05-18T16:16:28.507Z,19.63
2019-05-18T16:18:54.743Z,19.53
2019-05-18T16:21:20.999Z,19.56
2019-05-18T16:23:47.267Z,19.59
2019-05-18T16:26:21.266Z,19.60
2019-05-18T16:28:41.692Z,19.56
2019-05-18T16:31:07.953Z,19.47
2019-05-18T16:33:34.192Z,19.41
2019-05-18T16:36:00.419Z,19.33
2019-05-18T16:38:26.660Z,19.35
2019-05-18T16:40:52.889Z,19.34
2019-05-18T16:43:19.145Z,19.34
2019-05-18T16:45:45.381Z,19.30
2019-05-18T16:48:11.631Z,19.27
2019-05-18T16:50:37.883Z,19.23
2019-05-18T16:53:04.532Z,19.15
2019-05-18T16:55:31.003Z,19.07
2019-05-18T16:57:57.249Z,19.02
2019-05-18T17:00:23.674Z,18.95
2019-05-18T17:02:49.924Z,18.87
2019-05-18T17:05:16.155Z,18.78
2019-05-18T17:07:42.401Z,18.70
2019-05-18T17:10:08.947Z,18.73
2019-05-18T17:12:35.207Z,18.68
2019-05-18T17:15:01.474Z,18.60
2019-05-18T17:17:27.696Z,18.43
2019-05-18T17:19:53.921Z,18.43
2019-05-18T17:22:20.167Z,18.36
2019-05-18T17:24:46.404Z,18.32
2019-05-18T17:27:12.634Z,18.28
2019-05-18T17:29:38.899Z,18.27
2019-05-18T17:32:05.125Z,18.28
2019-05-18T17:34:31.384Z,18.20
2019-05-18T17:36:57.617Z,18.11
2019-05-18T17:39:23.858Z,18.01
2019-05-18T17:41:50.107Z,17.91
2019-05-18T17:44:16.363Z,17.81
2019-05-18T17:46:42.577Z,17.75
2019-05-18T17:49:25.600Z,17.69
2019-05-18T17:51:37.075Z,17.62
2019-05-18T17:54:03.476Z,17.50
2019-05-18T17:56:30.575Z,17.33
2019-05-18T17:58:56.820Z,17.24
2019-05-18T18:01:23.079Z,17.15
2019-05-18T18:03:49.324Z,17.04
2019-05-18T18:06:15.576Z,16.95
2019-05-18T18:08:41.828Z,16.83
2019-05-18T18:11:08.065Z,16.73
2019-05-18T18:13:34.315Z,16.64
2019-05-18T18:16:00.564Z,16.55
2019-05-18T18:18:27.033Z,16.41
2019-05-18T18:20:53.364Z,16.30
2019-05-18T18:23:19.619Z,16.20
2019-05-18T18:25:45.877Z,16.11
2019-05-18T18:28:12.419Z,15.96
2019-05-18T18:30:38.681Z,15.85
2019-05-18T18:33:04.925Z,15.78
2019-05-18T18:35:31.177Z,15.71
2019-05-18T18:37:57.428Z,15.61
2019-05-18T18:40:23.683Z,15.50
2019-05-18T18:42:49.941Z,15.37
2019-05-18T18:45:16.983Z,15.22
2019-05-18T18:47:43.242Z,15.10
2019-05-18T18:50:09.807Z,14.97
2019-05-18T18:52:36.049Z,14.85
2019-05-18T18:55:02.552Z,14.76
2019-05-18T18:57:40.566Z,14.58
2019-05-18T18:59:57.211Z,14.58
2019-05-18T19:02:23.498Z,14.53
2019-05-18T19:04:49.734Z,14.44
2019-05-18T19:07:15.982Z,14.34
2019-05-18T19:09:42.219Z,14.25
2019-05-18T19:12:08.467Z,14.13
2019-05-18T19:14:34.710Z,14.03
2019-05-18T19:17:00.953Z,13.93
2019-05-18T19:19:27.191Z,13.82
2019-05-18T19:21:53.436Z,13.74
2019-05-18T19:24:19.684Z,13.63
2019-05-18T19:26:45.939Z,13.50
2019-05-18T19:29:12.161Z,13.37
2019-05-18T19:31:38.399Z,13.27
2019-05-18T19:34:04.642Z,13.14
2019-05-18T19:36:30.893Z,13.04
2019-05-18T19:38:57.124Z,12.91
2019-05-18T19:41:23.363Z,12.77
2019-05-18T19:43:49.691Z,12.62
2019-05-18T19:46:15.935Z,12.50
2019-05-18T19:48:42.161Z,12.37
2019-05-18T19:51:08.408Z,12.27
2019-05-18T19:53:34.647Z,12.15
2019-05-18T19:56:00.880Z,12.03
2019-05-18T19:58:27.131Z,11.90
2019-05-18T20:00:53.364Z,11.79
2019-05-18T20:03:19.606Z,11.70
2019-05-18T20:05:45.833Z,11.56
2019-05-18T20:08:12.091Z,11.45
2019-05-18T20:10:38.346Z,11.34
2019-05-18T20:13:04.671Z,11.26
2019-05-18T20:15:30.916Z,11.18
2019-05-18T20:17:57.171Z,11.09
2019-05-18T20:20:23.406Z,10.98
2019-05-18T20:22:49.652Z,10.89
2019-05-18T20:25:15.885Z,10.77
2019-05-18T20:27:42.132Z,10.68
2019-05-18T20:30:08.966Z,10.57
2019-05-18T20:32:35.224Z,10.48
2019-05-18T20:35:01.511Z,10.37
2019-05-18T20:37:27.747Z,10.25
2019-05-18T20:39:54.016Z,10.14
2019-05-18T20:42:20.242Z,10.05
2019-05-18T20:44:46.466Z,9.96
2019-05-18T20:47:12.701Z,9.85
2019-05-18T20:49:38.949Z,9.74
2019-05-18T20:52:05.184Z,9.59
2019-05-18T20:54:31.433Z,9.42
2019-05-18T20:56:57.666Z,9.28
2019-05-18T20:59:24.024Z,9.12
2019-05-18T21:01:50.256Z,8.90
2019-05-18T21:04:16.497Z,8.71
2019-05-18T21:06:45.411Z,8.61
2019-05-18T21:09:10.879Z,8.52
2019-05-18T21:11:37.118Z,8.41
2019-05-18T21:14:03.376Z,8.24
2019-05-18T21:16:29.605Z,8.08
2019-05-18T21:18:55.851Z,7.86
2019-05-18T21:21:25.441Z,7.66
2019-05-18T21:23:50.262Z,7.54
2019-05-18T21:26:16.496Z,7.42
2019-05-18T21:28:54.781Z,7.36
2019-05-18T21:31:10.875Z,7.26
2019-05-18T21:33:37.125Z,7.10
2019-05-18T21:36:03.425Z,7.00
2019-05-18T21:38:29.712Z,6.92
2019-05-18T21:40:55.955Z,6.80
2019-05-18T21:43:22.183Z,6.69
2019-05-18T21:45:48.424Z,6.62
2019-05-18T21:48:14.751Z,6.55
2019-05-18T21:50:40.998Z,6.44
2019-05-18T21:53:07.254Z,6.40
2019-05-18T21:55:34.189Z,6.35
2019-05-18T21:58:00.420Z,6.30
2019-05-18T22:00:28.481Z,6.24
2019-05-18T22:02:54.729Z,6.20
2019-05-18T22:05:20.967Z,6.18
2019-05-18T22:07:47.198Z,6.12
2019-05-18T22:10:25.313Z,6.05
2019-05-18T22:12:41.706Z,6.02
2019-05-18T22:15:08.538Z,5.97
2019-05-18T22:17:36.569Z,5.88
2019-05-18T22:20:04.421Z,5.76
2019-05-18T22:22:30.707Z,5.64
2019-05-18T22:24:56.892Z,5.54
2019-05-18T22:27:23.136Z,5.48
2019-05-18T22:29:49.375Z,5.40
2019-05-18T22:32:15.605Z,5.29
2019-05-18T22:34:41.864Z,5.20
2019-05-18T22:37:08.128Z,5.10
2019-05-18T22:39:34.377Z,4.99
2019-05-18T22:42:00.631Z,4.88
2019-05-18T22:44:26.853Z,4.77
2019-05-18T22:46:53.092Z,4.69
2019-05-18T22:49:19.334Z,4.65
2019-05-18T22:51:45.585Z,4.60
2019-05-18T22:54:11.818Z,4.52
2019-05-18T22:56:38.082Z,4.45
2019-05-18T22:59:04.310Z,4.38
2019-05-18T23:01:30.544Z,4.29
2019-05-18T23:03:56.790Z,4.15
2019-05-18T23:06:23.025Z,4.08
2019-05-18T23:08:49.253Z,4.05
2019-05-18T23:11:15.483Z,3.99
2019-05-18T23:13:42.022Z,3.91
2019-05-18T23:16:08.240Z,3.80
2019-05-18T23:18:34.505Z,3.67
2019-05-18T23:21:00.735Z,3.21
2019-05-18T23:23:26.969Z,3.50
2019-05-18T23:25:53.197Z,3.40
2019-05-18T23:28:19.435Z,3.35
2019-05-18T23:30:45.680Z,3.28
2019-05-18T23:33:11.920Z,3.18
2019-05-18T23:35:38.165Z,3.11
2019-05-18T23:38:04.413Z,3.03
2019-05-18T23:40:30.651Z,2.96
2019-05-18T23:42:56.905Z,2.89
2019-05-18T23:45:23.130Z,2.82
2019-05-18T23:47:49.872Z,2.76
2019-05-18T23:50:16.094Z,2.73
2019-05-18T23:52:42.338Z,2.64
2019-05-18T23:55:08.870Z,2.56
2019-05-18T23:57:35.145Z,2.51
